Saint-Lin, Canada
Current Conditions -  °F | °C
As of 7:00 PM on Saturday 20 Dec 2014 (Local Time) from CYMX Reporting Station
Haze Haze  
Wind Chill: -17°   Ceiling: 200
Heat Index: -12°   Visibility: 0.75mi
Dew Point: -14°   Wind: 5mph
Humidity: 85%   Direction: 60°ENE
Pressure: 30.34"   Gusts: NA
Location:  45.85°N, 73.77°W
Report Text: CYMX 210000Z 06004KT 030V100 3/4SM R06/5000VP6000FT/D BR VV002 M12/M14 A3034 RMK FG8 TWR VIS 1/8 SLP283
Loading
Personal Weather Stations






























Interactive Weather Map New forecast layout! Learn more

10-Day Weather Forecast

Advertisements
Track Severe Weather on mobile